createdAt,value
2023-02-05T00:02:00.792Z,53.42
2023-02-05T00:07:03.892Z,53.74
2023-02-05T00:09:31.599Z,54.21
2023-02-05T00:12:00.868Z,54.21
2023-02-05T00:14:28.788Z,53.92
2023-02-05T00:16:56.699Z,53.95
2023-02-05T00:19:24.385Z,54.00
2023-02-05T00:21:52.296Z,53.99
2023-02-05T00:24:19.950Z,53.80
2023-02-05T00:26:47.773Z,53.89
2023-02-05T00:29:16.946Z,54.42
2023-02-05T00:31:44.998Z,54.02
2023-02-05T00:34:12.683Z,54.60
2023-02-05T00:36:40.467Z,54.71
2023-02-05T00:39:09.123Z,54.90
2023-02-05T00:41:36.913Z,55.07
2023-02-05T00:44:04.611Z,55.10
2023-02-05T00:46:33.753Z,54.78
2023-02-05T00:49:01.474Z,55.03
2023-02-05T00:51:29.309Z,55.30
2023-02-05T00:53:57.023Z,55.06
2023-02-05T00:56:24.849Z,54.74
2023-02-05T00:58:52.811Z,54.98
2023-02-05T01:01:21.644Z,55.44
2023-02-05T01:03:50.680Z,54.72
2023-02-05T01:06:18.338Z,54.88
2023-02-05T01:08:46.138Z,54.94
2023-02-05T01:11:14.957Z,55.42
2023-02-05T01:13:42.892Z,55.85
2023-02-05T01:16:11.328Z,55.28
2023-02-05T01:18:39.438Z,55.60
2023-02-05T01:21:08.436Z,55.35
2023-02-05T01:23:36.198Z,55.61
2023-02-05T01:26:03.836Z,55.79
2023-02-05T01:28:31.640Z,55.46
2023-02-05T01:30:59.452Z,56.00
2023-02-05T01:33:27.278Z,55.84
2023-02-05T01:35:54.916Z,55.58
2023-02-05T01:38:24.042Z,56.44
2023-02-05T01:40:51.720Z,56.26
2023-02-05T01:43:19.584Z,56.36
2023-02-05T01:46:17.845Z,55.74
2023-02-05T01:48:47.115Z,56.47
2023-02-05T01:51:15.142Z,56.14
2023-02-05T01:53:44.172Z,55.45
2023-02-05T01:56:13.758Z,55.99
2023-02-05T01:58:43.430Z,55.38
2023-02-05T02:01:11.288Z,55.70
2023-02-05T02:03:39.000Z,55.22
2023-02-05T02:06:07.253Z,55.85
2023-02-05T02:08:35.066Z,56.24
2023-02-05T02:11:05.490Z,55.81
2023-02-05T02:13:33.611Z,55.16
2023-02-05T02:16:01.423Z,55.28
2023-02-05T02:18:29.377Z,55.13
2023-02-05T02:21:12.125Z,55.34
2023-02-05T02:23:41.398Z,55.82
2023-02-05T02:26:33.595Z,54.96
2023-02-05T02:29:03.424Z,55.18
2023-02-05T02:31:32.655Z,54.97
2023-02-05T02:34:02.489Z,55.03
2023-02-05T02:36:31.655Z,55.23
2023-02-05T02:39:03.324Z,55.96
2023-02-05T02:41:32.819Z,55.70
2023-02-05T02:44:03.500Z,55.40
2023-02-05T02:46:32.778Z,55.45
2023-02-05T02:49:02.630Z,55.27
2023-02-05T02:51:30.470Z,55.89
2023-02-05T02:53:59.108Z,55.32
2023-02-05T02:56:28.084Z,55.73
2023-02-05T02:58:57.062Z,55.57
2023-02-05T03:01:27.095Z,55.55
2023-02-05T03:03:55.494Z,56.02
2023-02-05T03:06:23.274Z,55.70
2023-02-05T03:08:53.222Z,55.76
2023-02-05T03:11:20.888Z,55.86
2023-02-05T03:13:48.729Z,55.79
2023-02-05T03:16:18.019Z,55.58
2023-02-05T03:18:47.300Z,55.54
2023-02-05T03:21:16.323Z,55.58
2023-02-05T03:23:44.086Z,55.81
2023-02-05T03:26:36.083Z,55.88
2023-02-05T03:29:05.828Z,55.42
2023-02-05T03:31:36.842Z,56.01
2023-02-05T03:34:11.775Z,55.87
2023-02-05T03:36:44.030Z,55.72
2023-02-05T03:39:22.375Z,55.82
2023-02-05T03:41:59.094Z,56.37
2023-02-05T03:44:38.929Z,56.19
2023-02-05T03:47:08.230Z,56.40
2023-02-05T03:49:42.848Z,56.47
2023-02-05T03:52:12.861Z,56.58
2023-02-05T03:54:42.996Z,56.28
2023-02-05T03:57:12.502Z,56.54
2023-02-05T03:59:40.291Z,56.51
2023-02-05T04:02:09.291Z,56.58
2023-02-05T04:04:38.315Z,56.78
2023-02-05T04:07:06.005Z,56.50
2023-02-05T04:09:33.809Z,56.79
2023-02-05T04:12:01.541Z,56.36
2023-02-05T04:14:29.333Z,56.20
2023-02-05T04:16:57.005Z,56.81
2023-02-05T04:19:24.890Z,56.51
2023-02-05T04:21:53.966Z,57.04
2023-02-05T04:24:21.729Z,57.22
2023-02-05T04:26:50.957Z,57.28
2023-02-05T04:29:18.781Z,57.10
2023-02-05T04:31:46.501Z,57.00
2023-02-05T04:34:14.336Z,56.35
2023-02-05T04:36:42.072Z,56.69
2023-02-05T04:39:11.283Z,57.13
2023-02-05T04:41:38.954Z,57.10
2023-02-05T04:44:07.035Z,57.38
2023-02-05T04:46:34.697Z,57.30
2023-02-05T04:49:02.455Z,57.54
2023-02-05T04:51:30.185Z,57.05
2023-02-05T04:53:58.059Z,57.15
2023-02-05T04:56:27.303Z,57.31
2023-02-05T04:58:55.040Z,57.37
2023-02-05T05:01:23.420Z,57.64
2023-02-05T05:03:51.184Z,57.65
2023-02-05T05:06:19.014Z,57.70
2023-02-05T05:08:46.752Z,57.77
2023-02-05T05:11:15.500Z,57.58
2023-02-05T05:13:44.621Z,58.10
2023-02-05T05:16:12.822Z,57.65
2023-02-05T05:18:40.666Z,58.51
2023-02-05T05:21:08.774Z,57.81
2023-02-05T05:23:36.908Z,58.06
2023-02-05T05:26:06.484Z,57.83
2023-02-05T05:28:34.873Z,57.57
2023-02-05T05:31:09.130Z,57.83
2023-02-05T05:33:36.867Z,58.45
2023-02-05T05:36:05.138Z,58.54
2023-02-05T05:38:32.856Z,57.89
2023-02-05T05:41:18.345Z,58.03
2023-02-05T05:43:49.028Z,57.93
2023-02-05T05:46:22.000Z,58.17
2023-02-05T05:48:50.897Z,58.66
2023-02-05T05:51:19.003Z,58.11
2023-02-05T05:53:46.838Z,58.23
2023-02-05T05:56:15.670Z,58.14
2023-02-05T05:58:43.355Z,58.06
2023-02-05T06:01:11.134Z,58.11
2023-02-05T06:03:40.145Z,58.25
2023-02-05T06:06:08.542Z,58.24
2023-02-05T06:08:36.427Z,58.25
2023-02-05T06:11:04.152Z,58.89
2023-02-05T06:13:31.860Z,58.86
2023-02-05T06:15:59.523Z,58.36
2023-02-05T06:18:27.314Z,58.78
2023-02-05T06:20:56.310Z,59.03
2023-02-05T06:23:24.134Z,58.35
2023-02-05T06:25:51.846Z,58.64
2023-02-05T06:28:19.613Z,59.13
2023-02-05T06:30:47.482Z,59.00
2023-02-05T06:33:15.348Z,58.95
2023-02-05T06:35:43.127Z,58.98
2023-02-05T06:38:12.260Z,59.07
2023-02-05T06:40:39.957Z,58.85
2023-02-05T06:43:07.822Z,59.00
2023-02-05T06:45:35.974Z,59.50
2023-02-05T06:48:03.969Z,58.86
2023-02-05T06:50:31.714Z,59.40
2023-02-05T06:52:59.457Z,59.28
2023-02-05T06:55:28.634Z,59.29
2023-02-05T06:57:56.299Z,59.37
2023-02-05T07:00:24.122Z,59.06
2023-02-05T07:02:53.185Z,59.75
2023-02-05T07:05:21.030Z,59.64
2023-02-05T07:07:49.944Z,59.67
2023-02-05T07:10:18.737Z,59.23
2023-02-05T07:12:48.013Z,59.71
2023-02-05T07:15:15.732Z,59.27
2023-02-05T07:17:43.438Z,59.28
2023-02-05T07:20:12.234Z,59.20
2023-02-05T07:22:40.069Z,59.73
2023-02-05T07:25:08.658Z,59.43
2023-02-05T07:27:37.425Z,59.77
2023-02-05T07:30:08.197Z,59.84
2023-02-05T07:32:36.922Z,59.79
2023-02-05T07:35:04.887Z,59.33
2023-02-05T07:37:33.196Z,59.36
2023-02-05T07:40:00.923Z,59.98
2023-02-05T07:42:31.313Z,59.63
2023-02-05T07:44:59.633Z,60.10
2023-02-05T07:47:29.814Z,59.81
2023-02-05T07:49:57.523Z,60.17
2023-02-05T07:52:26.298Z,60.09
2023-02-05T07:54:54.111Z,59.64
2023-02-05T07:57:21.886Z,59.98
2023-02-05T07:59:49.552Z,59.28
2023-02-05T08:02:17.339Z,59.48
2023-02-05T08:04:46.627Z,59.71
2023-02-05T08:07:14.532Z,59.56
2023-02-05T08:09:42.276Z,59.67
2023-02-05T08:12:10.113Z,59.50
2023-02-05T08:14:38.084Z,59.14
2023-02-05T08:17:07.036Z,59.00
2023-02-05T08:19:35.967Z,59.46
2023-02-05T08:22:05.101Z,59.24
2023-02-05T08:24:32.955Z,59.08
2023-02-05T08:27:00.644Z,59.23
2023-02-05T08:29:28.352Z,58.83
2023-02-05T08:31:56.023Z,58.86
2023-02-05T08:34:23.842Z,59.16
2023-02-05T08:36:51.652Z,58.93
2023-02-05T08:39:20.837Z,58.75
2023-02-05T08:41:48.497Z,58.48
2023-02-05T08:44:16.333Z,59.17
2023-02-05T08:46:50.062Z,58.80
2023-02-05T08:49:18.313Z,59.14
2023-02-05T08:51:45.968Z,58.78
2023-02-05T08:54:15.155Z,58.79
2023-02-05T08:56:44.800Z,58.63
2023-02-05T08:59:12.593Z,59.14
2023-02-05T09:01:41.453Z,59.39
2023-02-05T09:04:09.174Z,58.81
2023-02-05T09:06:37.202Z,59.53
2023-02-05T09:09:04.902Z,59.47
2023-02-05T09:11:32.594Z,58.67
2023-02-05T09:14:01.698Z,59.46
2023-02-05T09:16:29.442Z,58.96
2023-02-05T09:18:57.255Z,58.93
2023-02-05T09:21:25.174Z,58.09
2023-02-05T09:23:52.925Z,57.71
2023-02-05T09:26:23.764Z,57.57
2023-02-05T09:28:51.438Z,57.81
2023-02-05T09:31:21.505Z,57.83
2023-02-05T09:33:49.417Z,58.02
2023-02-05T09:36:18.022Z,58.23
2023-02-05T09:38:46.148Z,57.85
2023-02-05T09:41:18.824Z,58.00
2023-02-05T09:43:49.571Z,58.00
2023-02-05T09:46:20.998Z,57.41
2023-02-05T09:48:50.687Z,57.49
2023-02-05T09:51:21.050Z,57.56
2023-02-05T09:53:54.332Z,57.92
2023-02-05T09:56:21.992Z,57.78
2023-02-05T09:58:50.768Z,57.69
2023-02-05T10:01:23.426Z,58.21
2023-02-05T10:03:54.241Z,58.68
2023-02-05T10:06:33.337Z,57.98
2023-02-05T10:09:03.353Z,58.45
2023-02-05T10:11:35.411Z,58.32
2023-02-05T10:14:05.910Z,58.14
2023-02-05T10:16:54.014Z,57.88
2023-02-05T10:19:47.861Z,58.00
2023-02-05T10:22:18.523Z,57.93
2023-02-05T10:24:56.284Z,58.36
2023-02-05T10:27:24.525Z,57.93
2023-02-05T10:29:58.102Z,57.83
2023-02-05T10:32:31.801Z,58.46
2023-02-05T10:35:02.748Z,58.12
2023-02-05T10:37:39.631Z,58.30
2023-02-05T10:40:13.357Z,58.24
2023-02-05T10:42:42.808Z,57.72
2023-02-05T10:45:16.845Z,58.00
2023-02-05T10:48:02.357Z,58.37
2023-02-05T10:50:32.042Z,57.90
2023-02-05T10:52:59.918Z,57.58
2023-02-05T10:55:27.632Z,58.24
2023-02-05T10:57:55.485Z,57.71
2023-02-05T11:00:23.679Z,58.48
2023-02-05T11:02:56.320Z,58.23
2023-02-05T11:05:26.296Z,57.94
2023-02-05T11:07:54.683Z,57.77
2023-02-05T11:10:23.194Z,57.98
2023-02-05T11:12:52.466Z,58.08
2023-02-05T11:15:22.367Z,57.57
2023-02-05T11:17:54.064Z,58.02
2023-02-05T11:20:30.388Z,57.62
2023-02-05T11:23:08.692Z,57.38
2023-02-05T11:25:36.328Z,57.86
2023-02-05T11:28:04.877Z,57.62
2023-02-05T11:30:50.886Z,58.20
2023-02-05T11:33:25.425Z,57.90
2023-02-05T11:35:55.730Z,58.24
2023-02-05T11:38:29.867Z,57.84
2023-02-05T11:40:58.872Z,57.87
2023-02-05T11:43:28.616Z,58.25
2023-02-05T11:45:57.174Z,57.99
2023-02-05T11:48:31.149Z,58.73
2023-02-05T11:51:00.218Z,58.98
2023-02-05T11:53:28.029Z,58.31
2023-02-05T11:55:56.876Z,58.75
2023-02-05T11:58:36.126Z,58.40
2023-02-05T12:01:05.678Z,58.16
2023-02-05T12:03:34.017Z,58.39
2023-02-05T12:06:08.552Z,58.75
2023-02-05T12:08:39.717Z,58.75
2023-02-05T12:11:58.095Z,59.60
2023-02-05T12:14:30.029Z,59.76
2023-02-05T12:17:01.220Z,59.62
2023-02-05T12:19:33.120Z,59.35
2023-02-05T12:22:03.531Z,60.20
2023-02-05T12:25:07.759Z,59.21
2023-02-05T12:27:42.209Z,59.19
2023-02-05T12:30:20.904Z,59.71
2023-02-05T12:32:51.977Z,59.45
2023-02-05T12:35:35.456Z,59.89
2023-02-05T12:38:09.600Z,59.50
2023-02-05T12:40:42.000Z,59.69
2023-02-05T12:43:16.085Z,59.93
2023-02-05T12:45:48.834Z,60.19
2023-02-05T12:48:34.679Z,60.38
2023-02-05T12:51:09.596Z,60.54
2023-02-05T12:53:54.549Z,60.13
2023-02-05T12:56:34.938Z,60.69
2023-02-05T12:59:03.776Z,60.10
2023-02-05T13:01:38.395Z,59.87
2023-02-05T13:04:06.152Z,59.82
2023-02-05T13:06:35.179Z,59.50
2023-02-05T13:09:06.281Z,59.71
2023-02-05T13:11:36.279Z,60.17
2023-02-05T13:14:07.599Z,59.85
2023-02-05T13:16:38.117Z,60.07
2023-02-05T13:19:11.975Z,59.85
2023-02-05T13:21:57.106Z,58.81
2023-02-05T13:24:48.014Z,60.06
2023-02-05T13:27:38.398Z,59.62
2023-02-05T13:30:07.684Z,59.04
2023-02-05T13:32:35.557Z,60.20
2023-02-05T13:35:03.384Z,60.04
2023-02-05T13:38:02.408Z,59.57
2023-02-05T13:40:39.815Z,59.76
2023-02-05T13:43:35.048Z,59.63
2023-02-05T13:46:18.759Z,60.09
2023-02-05T13:49:08.784Z,59.83
2023-02-05T13:51:45.290Z,59.12
2023-02-05T13:54:58.993Z,59.14
2023-02-05T13:58:20.315Z,59.16
2023-02-05T14:03:35.742Z,59.30
2023-02-05T14:06:14.500Z,58.60
2023-02-05T14:08:42.204Z,59.39
2023-02-05T14:11:09.947Z,58.74
2023-02-05T14:13:39.006Z,59.19
2023-02-05T14:16:36.127Z,58.69
2023-02-05T14:19:22.853Z,58.98
2023-02-05T14:22:12.715Z,58.38
2023-02-05T14:24:47.904Z,59.41
2023-02-05T14:27:52.095Z,58.26
2023-02-05T14:30:49.907Z,58.31
2023-02-05T14:33:31.651Z,58.44
2023-02-05T14:35:59.552Z,58.92
2023-02-05T14:38:29.821Z,59.33
2023-02-05T14:41:05.239Z,58.96
2023-02-05T14:43:33.673Z,59.08
2023-02-05T14:46:05.299Z,59.53
2023-02-05T14:48:34.267Z,59.44
2023-02-05T14:51:03.585Z,59.51
2023-02-05T14:53:31.305Z,58.65
2023-02-05T14:56:00.056Z,59.46
2023-02-05T14:58:29.720Z,59.37
2023-02-05T15:01:41.681Z,58.99
2023-02-05T15:04:23.156Z,58.44
2023-02-05T15:06:50.854Z,58.44
2023-02-05T15:09:20.759Z,58.69
2023-02-05T15:11:55.133Z,58.91
2023-02-05T15:14:32.991Z,59.10
2023-02-05T15:17:48.660Z,58.31
2023-02-05T15:20:25.796Z,59.20
2023-02-05T15:22:56.678Z,58.52
2023-02-05T15:25:34.137Z,58.22
2023-02-05T15:28:03.146Z,57.95
2023-02-05T15:30:33.298Z,58.33
2023-02-05T15:33:03.160Z,58.57
2023-02-05T15:35:32.269Z,58.02
2023-02-05T15:38:03.177Z,58.12
2023-02-05T15:40:32.081Z,57.62
2023-02-05T15:43:00.696Z,57.92
2023-02-05T15:45:29.439Z,57.74
2023-02-05T15:48:01.164Z,58.31
2023-02-05T15:50:29.061Z,57.93
2023-02-05T15:52:58.185Z,58.33
2023-02-05T15:55:27.623Z,57.73
2023-02-05T15:58:01.581Z,57.70
2023-02-05T16:00:31.188Z,56.96
2023-02-05T16:03:00.112Z,57.42
2023-02-05T16:05:28.581Z,57.14
2023-02-05T16:07:58.707Z,57.58
2023-02-05T16:10:29.099Z,57.41
2023-02-05T16:13:00.761Z,56.87
2023-02-05T16:15:30.731Z,57.11
2023-02-05T16:17:59.666Z,57.46
2023-02-05T16:20:29.451Z,56.72
2023-02-05T16:22:58.051Z,56.91
2023-02-05T16:25:34.586Z,57.53
2023-02-05T16:28:04.845Z,57.10
2023-02-05T16:30:35.241Z,56.62
2023-02-05T16:33:03.417Z,56.75
2023-02-05T16:35:33.842Z,57.48
2023-02-05T16:38:03.413Z,57.46
2023-02-05T16:40:36.346Z,56.75
2023-02-05T16:43:21.558Z,57.35
2023-02-05T16:46:22.222Z,57.59
2023-02-05T16:48:51.044Z,56.72
2023-02-05T16:51:38.403Z,56.17
2023-02-05T16:54:35.043Z,56.76
2023-02-05T16:57:07.993Z,56.80
2023-02-05T16:59:37.823Z,57.27
2023-02-05T17:02:05.682Z,57.38
2023-02-05T17:04:34.834Z,57.02
2023-02-05T17:07:03.624Z,57.50
2023-02-05T17:09:33.742Z,57.10
2023-02-05T17:12:39.708Z,57.37
2023-02-05T17:15:36.473Z,56.67
2023-02-05T17:18:19.614Z,57.33
2023-02-05T17:20:47.578Z,56.82
2023-02-05T17:23:16.687Z,57.37
2023-02-05T17:25:53.432Z,56.60
2023-02-05T17:28:24.886Z,56.88
2023-02-05T17:30:53.034Z,57.34
2023-02-05T17:33:21.586Z,57.54
2023-02-05T17:35:49.541Z,56.63
2023-02-05T17:38:17.304Z,56.67
2023-02-05T17:40:48.853Z,57.08
2023-02-05T17:43:16.610Z,56.87
2023-02-05T17:45:45.825Z,56.71
2023-02-05T17:48:13.600Z,56.68
2023-02-05T17:50:41.396Z,56.61
2023-02-05T17:53:11.033Z,56.97
2023-02-05T17:55:38.869Z,55.91
2023-02-05T17:58:06.659Z,56.07
2023-02-05T18:00:34.664Z,56.43
2023-02-05T18:03:07.509Z,55.91
2023-02-05T18:05:35.368Z,55.95
2023-02-05T18:08:03.460Z,55.96
2023-02-05T18:10:32.111Z,55.41
2023-02-05T18:12:59.997Z,55.85
2023-02-05T18:15:27.718Z,54.93
2023-02-05T18:17:55.486Z,54.84
2023-02-05T18:20:24.700Z,54.83
2023-02-05T18:22:52.439Z,55.84
2023-02-05T18:25:20.260Z,55.00
2023-02-05T18:27:48.834Z,54.85
2023-02-05T18:30:16.596Z,54.98
2023-02-05T18:32:44.301Z,54.54
2023-02-05T18:35:14.398Z,54.60
2023-02-05T18:37:43.571Z,55.62
2023-02-05T18:40:12.592Z,55.39
2023-02-05T18:42:41.174Z,54.97
2023-02-05T18:45:10.088Z,54.90
2023-02-05T18:47:37.768Z,54.88
2023-02-05T18:50:06.124Z,55.30
2023-02-05T18:52:33.801Z,54.74
2023-02-05T18:55:02.888Z,55.27
2023-02-05T18:57:30.992Z,54.58
2023-02-05T18:59:58.833Z,54.62
2023-02-05T19:02:26.517Z,54.66
2023-02-05T19:04:56.512Z,54.55
2023-02-05T19:07:24.838Z,55.00
2023-02-05T19:09:53.022Z,54.34
2023-02-05T19:12:22.070Z,54.33
2023-02-05T19:14:49.995Z,54.43
2023-02-05T19:17:21.277Z,54.66
2023-02-05T19:19:50.593Z,53.76
2023-02-05T19:22:18.407Z,54.50
2023-02-05T19:24:48.691Z,53.82
2023-02-05T19:27:18.011Z,54.25
2023-02-05T19:29:47.812Z,54.51
2023-02-05T19:32:15.830Z,54.49
2023-02-05T19:34:45.096Z,54.23
2023-02-05T19:37:12.734Z,53.46
2023-02-05T19:39:40.645Z,53.17
2023-02-05T19:42:09.601Z,53.93
2023-02-05T19:44:37.328Z,53.51
2023-02-05T19:47:07.853Z,54.27
2023-02-05T19:49:35.638Z,53.26
2023-02-05T19:52:03.405Z,52.87
2023-02-05T19:54:31.295Z,53.13
2023-02-05T19:56:58.930Z,54.21
2023-02-05T20:02:00.474Z,53.61
2023-02-05T20:04:30.430Z,53.47
2023-02-05T20:06:59.402Z,53.52
2023-02-05T20:09:27.203Z,53.50
2023-02-05T20:11:56.024Z,53.67
2023-02-05T20:14:24.080Z,53.45
2023-02-05T20:16:52.100Z,53.28
2023-02-05T20:19:20.025Z,52.81
2023-02-05T20:21:49.176Z,53.47
2023-02-05T20:24:17.321Z,52.99
2023-02-05T20:26:45.237Z,52.68
2023-02-05T20:29:30.314Z,53.07
2023-02-05T20:31:59.049Z,53.53
2023-02-05T20:34:30.505Z,53.96
2023-02-05T20:37:00.547Z,53.09
2023-02-05T20:39:29.560Z,53.64
2023-02-05T20:41:59.042Z,52.62
2023-02-05T20:44:27.098Z,53.29
2023-02-05T20:46:57.031Z,53.49
2023-02-05T20:49:24.850Z,54.03
2023-02-05T20:51:53.218Z,53.49
2023-02-05T20:54:22.366Z,53.68
2023-02-05T20:56:51.006Z,53.11
2023-02-05T20:59:18.820Z,53.85
2023-02-05T21:01:46.703Z,53.27
2023-02-05T21:04:21.334Z,53.06
2023-02-05T21:06:49.092Z,53.84
2023-02-05T21:09:17.246Z,53.65
2023-02-05T21:11:46.544Z,53.45
2023-02-05T21:14:14.455Z,53.56
2023-02-05T21:16:42.206Z,53.14
2023-02-05T21:19:10.015Z,53.63
2023-02-05T21:21:38.082Z,52.82
2023-02-05T21:24:07.141Z,54.02
2023-02-05T21:26:35.557Z,52.68
2023-02-05T21:29:05.605Z,53.14
2023-02-05T21:31:38.500Z,53.45
2023-02-05T21:34:07.722Z,53.28
2023-02-05T21:36:35.478Z,52.85
2023-02-05T21:39:03.290Z,53.46
2023-02-05T21:41:31.120Z,53.57
2023-02-05T21:44:00.992Z,52.72
2023-02-05T21:46:30.311Z,53.14
2023-02-05T21:49:00.579Z,53.11
2023-02-05T21:51:28.972Z,53.71
2023-02-05T21:53:59.036Z,53.29
2023-02-05T21:56:28.675Z,53.07
2023-02-05T21:58:56.507Z,52.90
2023-02-05T22:01:25.413Z,53.42
2023-02-05T22:03:55.180Z,53.73
2023-02-05T22:06:24.175Z,54.14
2023-02-05T22:08:51.999Z,54.00
2023-02-05T22:11:20.959Z,53.62
2023-02-05T22:13:49.535Z,53.57
2023-02-05T22:16:18.857Z,53.11
2023-02-05T22:18:46.745Z,53.26
2023-02-05T22:21:17.548Z,53.37
2023-02-05T22:23:48.798Z,54.30
2023-02-05T22:26:16.666Z,53.76
2023-02-05T22:28:44.830Z,53.88
2023-02-05T22:31:14.390Z,53.30
2023-02-05T22:33:42.912Z,54.16
2023-02-05T22:36:11.255Z,54.13
2023-02-05T22:38:40.750Z,54.42
2023-02-05T22:41:08.874Z,54.20
2023-02-05T22:43:37.026Z,54.64
2023-02-05T22:46:05.625Z,54.72
2023-02-05T22:48:35.694Z,54.87
2023-02-05T22:51:03.750Z,54.38
2023-02-05T22:53:31.603Z,54.66
2023-02-05T22:56:02.824Z,55.35
2023-02-05T22:58:39.185Z,55.18
2023-02-05T23:01:10.084Z,54.46
2023-02-05T23:03:38.007Z,55.47
2023-02-05T23:06:10.123Z,55.47
2023-02-05T23:08:38.008Z,55.08
2023-02-05T23:11:07.638Z,55.64
2023-02-05T23:13:35.363Z,55.76
2023-02-05T23:16:07.683Z,55.59
2023-02-05T23:18:35.624Z,55.68
2023-02-05T23:21:07.298Z,55.83
2023-02-05T23:23:36.380Z,55.53
2023-02-05T23:26:09.120Z,56.22
2023-02-05T23:28:37.153Z,56.07
2023-02-05T23:31:05.123Z,56.21
2023-02-05T23:33:33.313Z,56.37
2023-02-05T23:36:01.137Z,56.19
2023-02-05T23:38:29.113Z,56.26
2023-02-05T23:40:57.042Z,56.57
2023-02-05T23:43:26.374Z,56.70
2023-02-05T23:45:54.483Z,56.50
2023-02-05T23:48:22.258Z,56.50
2023-02-05T23:50:50.304Z,56.65
2023-02-05T23:53:20.928Z,56.56
2023-02-05T23:55:49.557Z,56.74
2023-02-05T23:58:18.059Z,56.58
